Terminal Aerodrome Forecast
Issued by NWS Northern Indiana

Home | Current Version | Previous Version | Text Only | Print | Product List | Glossary Off
Versions: 1 2 3 4 5 6 7 8 9 10 11 12 13 14 15 16

079
FTUS43 KIWX 141732
TAFFWA
TAF
KFWA 141732Z 1418/1518 18008KT P6SM SCT050
     FM150000 15007KT P6SM OVC050
     FM150600 15009KT 2SM -SN OVC020
     FM151000 15009KT 1SM -SN OVC010=

USA.gov is the U.S. government's official web portal to all federal, state and local government web resources and services.